American Fork, Utah
Current Conditions -  °F | °C
As of 6:35 AM on Sunday 23 Nov 2014 (Local Time) from KPVU Reporting Station
Clear Clear  
Wind Chill: 23°   Ceiling: Unl
Heat Index: 34°   Visibility: 10mi
Dew Point: 25°   Wind: 18mph
Humidity: 70%   Direction: 330°NNW
Pressure: 30.09"   Gusts: 23mph
Location:  40.38°N, 111.79°W
Report Text: KPVU 231335Z 33016G20KT 10SM CLR 01/M04 A3009 RMK AO1
Loading
Personal Weather Stations






























Interactive Weather Map New forecast layout! Learn more

10-Day Weather Forecast

Advertisements
Track Severe Weather on mobile